Главная страница
METAR-TAF:

METAR-TAF

Аэропорты :

Корор, Бабелтуап, Палау

широта: 07-22N, долгота: 134-32E, высота над уровнем моря: 54 м

Текущие метеонаблюдения

Эта сводка был подготовлена 1 час и 5 минут назад, в 02:50 UTC
Ветер 7 Узел от восточный с порывами до 15 Узел
Температура 30°C
Влажность 70%
Давление 1006 hPa
Видимость: 24.1 км
небольшая облачность на высоте 1000 фута
Отдельные облака на высоте 1600 фута
Рассеянная облачность на высоте 12000 фута
Рассеянная облачность на высоте 30000 фута

METAR: PTRO 240250Z 08007G15KT 15SM FEW010 SCT016 BKN120 BKN300 30/24 A2971

Время: 12:55 (03:55 UTC)

Прогноз

Эта сводка был подготовлена 4 часа и 9 минут назад, в 23:46 UTC
Прогноз действительный с 24-го 00 UTC до 24-го 24 UTC
Ветер 6 Узел переменных направлений
Видимость: 10 км
небольшая облачность на высоте 2000 фута
Отдельные облака на высоте 12000 фута

TAF: PTRO 232346Z 2400/2424 VRB06KT P6SM FEW020 SCT120

Метеонаблюдения и прогнозы для более 4000 аэропортов (сводки METAR и TAF).

Имеющиеся станции представлены на карте желтыми и красными точками.

Чтобы увидеть название станции, наведите на нее мышь.

Затем щелкните, чтобы увидеть метеонаблюдения и метеопрогнозы.

Управление картой: чтобы увеличить масштаб, щелкните зеленые кнопки с черным крестиком; чтобы уменьшить масштаб, щелкните зеленую кнопку с тире; для просмотра соседних карт щелкайте зеленые стрелки.


METAR-TAF: